sensor_id;sensor_type;location;lat;lon;timestamp;pressure;altitude;pressure_sealevel;temperature;humidity
34205;BME280;20471;49.680;20.074;2023-04-27T00:00:11;97272.42;;;2.67;66.80
34205;BME280;20471;49.680;20.074;2023-04-27T00:02:59;97273.33;;;2.64;66.79
34205;BME280;20471;49.680;20.074;2023-04-27T00:05:34;97273.60;;;2.58;66.84
34205;BME280;20471;49.680;20.074;2023-04-27T00:08:01;97270.02;;;2.51;66.98
34205;BME280;20471;49.680;20.074;2023-04-27T00:10:28;97268.84;;;2.47;66.98
34205;BME280;20471;49.680;20.074;2023-04-27T00:12:55;97269.69;;;2.43;67.03
34205;BME280;20471;49.680;20.074;2023-04-27T00:15:21;97271.48;;;2.38;67.04
34205;BME280;20471;49.680;20.074;2023-04-27T00:17:48;97271.54;;;2.34;67.08
34205;BME280;20471;49.680;20.074;2023-04-27T00:20:15;97273.07;;;2.30;67.13
34205;BME280;20471;49.680;20.074;2023-04-27T00:22:42;97277.49;;;2.27;67.09
34205;BME280;20471;49.680;20.074;2023-04-27T00:25:09;97276.51;;;2.24;67.19
34205;BME280;20471;49.680;20.074;2023-04-27T00:27:36;97271.94;;;2.22;67.21
34205;BME280;20471;49.680;20.074;2023-04-27T00:30:04;97273.55;;;2.18;67.22
34205;BME280;20471;49.680;20.074;2023-04-27T00:32:31;97273.40;;;2.15;67.24
34205;BME280;20471;49.680;20.074;2023-04-27T00:34:57;97270.89;;;2.12;67.36
34205;BME280;20471;49.680;20.074;2023-04-27T00:37:24;97273.96;;;2.09;67.38
34205;BME280;20471;49.680;20.074;2023-04-27T00:39:51;97273.83;;;2.04;67.38
34205;BME280;20471;49.680;20.074;2023-04-27T00:42:17;97273.86;;;1.99;67.34
34205;BME280;20471;49.680;20.074;2023-04-27T00:44:45;97274.34;;;1.90;67.39
34205;BME280;20471;49.680;20.074;2023-04-27T00:47:12;97278.27;;;1.83;67.56
34205;BME280;20471;49.680;20.074;2023-04-27T00:49:39;97274.86;;;1.79;67.68
34205;BME280;20471;49.680;20.074;2023-04-27T00:52:06;97274.87;;;1.76;67.72
34205;BME280;20471;49.680;20.074;2023-04-27T00:54:33;97275.21;;;1.71;67.74
34205;BME280;20471;49.680;20.074;2023-04-27T00:57:00;97276.20;;;1.66;67.89
34205;BME280;20471;49.680;20.074;2023-04-27T00:59:28;97276.15;;;1.60;67.92
34205;BME280;20471;49.680;20.074;2023-04-27T01:01:55;97275.61;;;1.57;68.03
34205;BME280;20471;49.680;20.074;2023-04-27T01:04:22;97277.41;;;1.55;68.03
34205;BME280;20471;49.680;20.074;2023-04-27T01:06:49;97276.38;;;1.48;67.99
34205;BME280;20471;49.680;20.074;2023-04-27T01:09:15;97282.49;;;1.43;68.08
34205;BME280;20471;49.680;20.074;2023-04-27T01:11:45;97284.46;;;1.43;68.23
34205;BME280;20471;49.680;20.074;2023-04-27T01:14:12;97284.42;;;1.44;68.29
34205;BME280;20471;49.680;20.074;2023-04-27T01:16:39;97286.70;;;1.42;68.28
34205;BME280;20471;49.680;20.074;2023-04-27T01:19:06;97288.84;;;1.42;68.31
34205;BME280;20471;49.680;20.074;2023-04-27T01:21:33;97284.80;;;1.40;68.34
34205;BME280;20471;49.680;20.074;2023-04-27T01:24:00;97289.98;;;1.40;68.40
34205;BME280;20471;49.680;20.074;2023-04-27T01:26:27;97289.48;;;1.39;68.55
34205;BME280;20471;49.680;20.074;2023-04-27T01:28:53;97295.38;;;1.41;68.63
34205;BME280;20471;49.680;20.074;2023-04-27T01:31:20;97295.12;;;1.41;68.69
34205;BME280;20471;49.680;20.074;2023-04-27T01:33:46;97296.09;;;1.42;68.78
34205;BME280;20471;49.680;20.074;2023-04-27T01:36:13;97297.20;;;1.44;68.81
34205;BME280;20471;49.680;20.074;2023-04-27T01:38:40;97302.70;;;1.47;68.93
34205;BME280;20471;49.680;20.074;2023-04-27T01:41:07;97303.30;;;1.48;69.04
34205;BME280;20471;49.680;20.074;2023-04-27T01:43:35;97298.80;;;1.51;69.16
34205;BME280;20471;49.680;20.074;2023-04-27T01:46:10;97299.66;;;1.52;69.16
34205;BME280;20471;49.680;20.074;2023-04-27T01:48:38;97300.38;;;1.54;69.25
34205;BME280;20471;49.680;20.074;2023-04-27T01:51:05;97302.89;;;1.56;69.28
34205;BME280;20471;49.680;20.074;2023-04-27T01:53:32;97300.70;;;1.56;69.37
34205;BME280;20471;49.680;20.074;2023-04-27T01:55:59;97297.09;;;1.58;69.38
34205;BME280;20471;49.680;20.074;2023-04-27T01:58:26;97292.36;;;1.60;69.51
34205;BME280;20471;49.680;20.074;2023-04-27T02:00:53;97298.89;;;1.63;69.48
34205;BME280;20471;49.680;20.074;2023-04-27T02:03:20;97296.51;;;1.64;69.44
34205;BME280;20471;49.680;20.074;2023-04-27T02:05:47;97298.55;;;1.60;69.50
34205;BME280;20471;49.680;20.074;2023-04-27T02:08:14;97305.00;;;1.61;69.53
34205;BME280;20471;49.680;20.074;2023-04-27T02:10:40;97302.84;;;1.63;69.66
34205;BME280;20471;49.680;20.074;2023-04-27T02:13:07;97299.30;;;1.65;69.65
34205;BME280;20471;49.680;20.074;2023-04-27T02:15:35;97299.80;;;1.65;69.80
34205;BME280;20471;49.680;20.074;2023-04-27T02:18:02;97303.45;;;1.67;69.74
34205;BME280;20471;49.680;20.074;2023-04-27T02:20:30;97304.12;;;1.68;69.72
34205;BME280;20471;49.680;20.074;2023-04-27T02:22:57;97301.73;;;1.68;69.71
34205;BME280;20471;49.680;20.074;2023-04-27T02:25:24;97304.43;;;1.69;69.71
34205;BME280;20471;49.680;20.074;2023-04-27T02:27:51;97302.97;;;1.68;69.85
34205;BME280;20471;49.680;20.074;2023-04-27T02:30:18;97305.86;;;1.66;69.77
34205;BME280;20471;49.680;20.074;2023-04-27T02:32:45;97312.93;;;1.63;69.89
34205;BME280;20471;49.680;20.074;2023-04-27T02:35:12;97310.20;;;1.60;69.97
34205;BME280;20471;49.680;20.074;2023-04-27T02:37:38;97308.61;;;1.60;69.97
34205;BME280;20471;49.680;20.074;2023-04-27T02:40:06;97304.75;;;1.60;70.02
34205;BME280;20471;49.680;20.074;2023-04-27T02:42:33;97310.59;;;1.56;70.18
34205;BME280;20471;49.680;20.074;2023-04-27T02:45:00;97312.33;;;1.57;70.30
34205;BME280;20471;49.680;20.074;2023-04-27T02:47:27;97313.61;;;1.58;70.42
34205;BME280;20471;49.680;20.074;2023-04-27T02:49:53;97317.91;;;1.56;70.47
34205;BME280;20471;49.680;20.074;2023-04-27T02:52:20;97315.38;;;1.53;70.51
34205;BME280;20471;49.680;20.074;2023-04-27T02:54:47;97313.21;;;1.54;70.57
34205;BME280;20471;49.680;20.074;2023-04-27T02:57:14;97313.89;;;1.56;70.65
34205;BME280;20471;49.680;20.074;2023-04-27T02:59:41;97313.89;;;1.59;70.66
34205;BME280;20471;49.680;20.074;2023-04-27T03:02:07;97315.52;;;1.62;70.78
34205;BME280;20471;49.680;20.074;2023-04-27T03:04:34;97313.54;;;1.64;70.77
34205;BME280;20471;49.680;20.074;2023-04-27T03:07:03;97313.96;;;1.67;70.79
34205;BME280;20471;49.680;20.074;2023-04-27T03:09:29;97312.64;;;1.68;70.84
34205;BME280;20471;49.680;20.074;2023-04-27T03:11:56;97316.50;;;1.68;70.85
34205;BME280;20471;49.680;20.074;2023-04-27T03:14:23;97312.36;;;1.70;70.87
34205;BME280;20471;49.680;20.074;2023-04-27T03:16:49;97314.40;;;1.72;70.83
34205;BME280;20471;49.680;20.074;2023-04-27T03:19:16;97315.68;;;1.74;70.83
34205;BME280;20471;49.680;20.074;2023-04-27T03:21:43;97317.92;;;1.76;70.94
34205;BME280;20471;49.680;20.074;2023-04-27T03:24:09;97317.80;;;1.77;70.99
34205;BME280;20471;49.680;20.074;2023-04-27T03:26:36;97316.13;;;1.76;71.00
34205;BME280;20471;49.680;20.074;2023-04-27T03:29:03;97317.59;;;1.76;70.98
34205;BME280;20471;49.680;20.074;2023-04-27T03:31:29;97317.45;;;1.76;71.03
34205;BME280;20471;49.680;20.074;2023-04-27T03:33:56;97318.83;;;1.76;71.06
34205;BME280;20471;49.680;20.074;2023-04-27T03:36:23;97319.98;;;1.75;71.14
34205;BME280;20471;49.680;20.074;2023-04-27T03:38:50;97319.61;;;1.74;71.19
34205;BME280;20471;49.680;20.074;2023-04-27T03:41:16;97327.86;;;1.74;71.20
34205;BME280;20471;49.680;20.074;2023-04-27T03:43:43;97331.02;;;1.73;71.18
34205;BME280;20471;49.680;20.074;2023-04-27T03:46:10;97331.49;;;1.70;71.28
34205;BME280;20471;49.680;20.074;2023-04-27T03:48:36;97336.39;;;1.68;71.26
34205;BME280;20471;49.680;20.074;2023-04-27T03:51:03;97338.64;;;1.67;71.30
34205;BME280;20471;49.680;20.074;2023-04-27T03:53:30;97343.66;;;1.66;71.31
34205;BME280;20471;49.680;20.074;2023-04-27T03:55:56;97343.41;;;1.65;71.32
34205;BME280;20471;49.680;20.074;2023-04-27T03:58:23;97342.48;;;1.65;71.37
34205;BME280;20471;49.680;20.074;2023-04-27T04:00:50;97342.42;;;1.66;71.42
34205;BME280;20471;49.680;20.074;2023-04-27T04:03:17;97344.61;;;1.65;71.47
34205;BME280;20471;49.680;20.074;2023-04-27T04:05:43;97348.42;;;1.65;71.47
34205;BME280;20471;49.680;20.074;2023-04-27T04:08:12;97349.92;;;1.64;71.38
34205;BME280;20471;49.680;20.074;2023-04-27T04:10:39;97353.38;;;1.63;71.54
34205;BME280;20471;49.680;20.074;2023-04-27T04:13:06;97357.49;;;1.62;71.57
34205;BME280;20471;49.680;20.074;2023-04-27T04:15:32;97358.41;;;1.62;71.61
34205;BME280;20471;49.680;20.074;2023-04-27T04:17:59;97354.95;;;1.65;71.83
34205;BME280;20471;49.680;20.074;2023-04-27T04:20:26;97361.30;;;1.67;71.87
34205;BME280;20471;49.680;20.074;2023-04-27T04:22:52;97365.15;;;1.68;71.91
34205;BME280;20471;49.680;20.074;2023-04-27T04:25:19;97362.63;;;1.68;72.07
34205;BME280;20471;49.680;20.074;2023-04-27T04:27:46;97363.88;;;1.69;72.12
34205;BME280;20471;49.680;20.074;2023-04-27T04:30:13;97366.02;;;1.74;72.20
34205;BME280;20471;49.680;20.074;2023-04-27T04:32:40;97366.95;;;1.79;72.21
34205;BME280;20471;49.680;20.074;2023-04-27T04:35:07;97368.82;;;1.84;72.10
34205;BME280;20471;49.680;20.074;2023-04-27T04:37:34;97373.70;;;1.88;72.19
34205;BME280;20471;49.680;20.074;2023-04-27T04:40:06;97375.77;;;1.94;72.17
34205;BME280;20471;49.680;20.074;2023-04-27T04:42:37;97381.23;;;1.99;72.09
34205;BME280;20471;49.680;20.074;2023-04-27T04:45:05;97386.95;;;2.02;72.10
34205;BME280;20471;49.680;20.074;2023-04-27T04:47:32;97382.89;;;2.05;72.10
34205;BME280;20471;49.680;20.074;2023-04-27T04:49:59;97390.13;;;2.09;72.01
34205;BME280;20471;49.680;20.074;2023-04-27T04:52:26;97390.79;;;2.13;72.07
34205;BME280;20471;49.680;20.074;2023-04-27T04:54:53;97388.86;;;2.14;71.87
34205;BME280;20471;49.680;20.074;2023-04-27T04:57:20;97388.86;;;2.16;71.96
34205;BME280;20471;49.680;20.074;2023-04-27T04:59:47;97388.20;;;2.19;71.82
34205;BME280;20471;49.680;20.074;2023-04-27T05:02:13;97389.45;;;2.17;71.87
34205;BME280;20471;49.680;20.074;2023-04-27T05:04:40;97397.20;;;2.19;71.87
34205;BME280;20471;49.680;20.074;2023-04-27T05:07:07;97394.94;;;2.21;71.84
34205;BME280;20471;49.680;20.074;2023-04-27T05:09:33;97397.65;;;2.22;71.90
34205;BME280;20471;49.680;20.074;2023-04-27T05:12:00;97400.19;;;2.23;71.93
34205;BME280;20471;49.680;20.074;2023-04-27T05:14:30;97400.60;;;2.25;72.06
34205;BME280;20471;49.680;20.074;2023-04-27T05:16:57;97400.80;;;2.26;72.06
34205;BME280;20471;49.680;20.074;2023-04-27T05:19:23;97395.98;;;2.26;72.04
34205;BME280;20471;49.680;20.074;2023-04-27T05:21:50;97402.19;;;2.28;72.03
34205;BME280;20471;49.680;20.074;2023-04-27T05:24:17;97400.38;;;2.30;72.04
34205;BME280;20471;49.680;20.074;2023-04-27T05:26:44;97400.75;;;2.31;72.12
34205;BME280;20471;49.680;20.074;2023-04-27T05:29:10;97402.91;;;2.33;72.06
34205;BME280;20471;49.680;20.074;2023-04-27T05:31:37;97404.66;;;2.35;72.01
34205;BME280;20471;49.680;20.074;2023-04-27T05:34:04;97406.33;;;2.39;72.08
34205;BME280;20471;49.680;20.074;2023-04-27T05:36:30;97406.80;;;2.44;72.21
34205;BME280;20471;49.680;20.074;2023-04-27T05:38:57;97407.97;;;2.50;72.16
34205;BME280;20471;49.680;20.074;2023-04-27T05:41:24;97407.11;;;2.57;72.18
34205;BME280;20471;49.680;20.074;2023-04-27T05:43:50;97412.06;;;2.64;72.03
34205;BME280;20471;49.680;20.074;2023-04-27T05:46:18;97412.70;;;2.71;72.08
34205;BME280;20471;49.680;20.074;2023-04-27T05:48:45;97409.15;;;2.79;71.88
34205;BME280;20471;49.680;20.074;2023-04-27T05:51:12;97407.07;;;2.89;71.94
34205;BME280;20471;49.680;20.074;2023-04-27T05:53:39;97408.94;;;2.98;71.82
34205;BME280;20471;49.680;20.074;2023-04-27T05:56:06;97412.73;;;3.06;71.69
34205;BME280;20471;49.680;20.074;2023-04-27T05:58:33;97413.54;;;3.13;71.68
34205;BME280;20471;49.680;20.074;2023-04-27T06:01:00;97418.17;;;3.23;71.55
34205;BME280;20471;49.680;20.074;2023-04-27T06:03:29;97420.88;;;3.34;71.20
34205;BME280;20471;49.680;20.074;2023-04-27T06:05:57;97424.95;;;3.44;70.83
34205;BME280;20471;49.680;20.074;2023-04-27T06:08:24;97422.69;;;3.53;70.58
34205;BME280;20471;49.680;20.074;2023-04-27T06:10:50;97424.21;;;3.62;70.53
34205;BME280;20471;49.680;20.074;2023-04-27T06:13:17;97423.17;;;3.71;70.18
34205;BME280;20471;49.680;20.074;2023-04-27T06:15:44;97419.90;;;3.83;70.08
34205;BME280;20471;49.680;20.074;2023-04-27T06:18:12;97420.38;;;3.98;70.15
34205;BME280;20471;49.680;20.074;2023-04-27T06:20:39;97418.84;;;4.12;69.92
34205;BME280;20471;49.680;20.074;2023-04-27T06:23:05;97416.71;;;4.25;69.93
34205;BME280;20471;49.680;20.074;2023-04-27T06:25:32;97412.75;;;4.39;69.68
34205;BME280;20471;49.680;20.074;2023-04-27T06:28:00;97414.54;;;4.55;69.41
34205;BME280;20471;49.680;20.074;2023-04-27T06:30:27;97417.39;;;4.67;69.10
34205;BME280;20471;49.680;20.074;2023-04-27T06:32:54;97414.56;;;4.78;68.89
34205;BME280;20471;49.680;20.074;2023-04-27T06:35:20;97415.85;;;4.88;68.31
34205;BME280;20471;49.680;20.074;2023-04-27T06:37:47;97415.09;;;4.97;67.85
34205;BME280;20471;49.680;20.074;2023-04-27T06:40:14;97412.92;;;5.07;67.72
34205;BME280;20471;49.680;20.074;2023-04-27T06:42:41;97418.11;;;5.21;67.45
34205;BME280;20471;49.680;20.074;2023-04-27T06:45:07;97420.06;;;5.35;67.01
34205;BME280;20471;49.680;20.074;2023-04-27T06:47:34;97417.30;;;5.48;66.59
34205;BME280;20471;49.680;20.074;2023-04-27T06:50:01;97418.60;;;5.61;66.38
34205;BME280;20471;49.680;20.074;2023-04-27T06:52:31;97417.09;;;5.74;66.22
34205;BME280;20471;49.680;20.074;2023-04-27T06:54:58;97414.70;;;5.90;66.13
34205;BME280;20471;49.680;20.074;2023-04-27T06:57:25;97416.30;;;6.04;66.06
34205;BME280;20471;49.680;20.074;2023-04-27T06:59:51;97412.02;;;6.20;65.62
34205;BME280;20471;49.680;20.074;2023-04-27T07:02:18;97415.41;;;6.34;65.61
34205;BME280;20471;49.680;20.074;2023-04-27T07:04:45;97417.92;;;6.48;65.18
34205;BME280;20471;49.680;20.074;2023-04-27T07:07:12;97414.65;;;6.57;64.82
34205;BME280;20471;49.680;20.074;2023-04-27T07:09:39;97417.13;;;6.60;64.40
34205;BME280;20471;49.680;20.074;2023-04-27T07:12:06;97419.27;;;6.63;64.12
34205;BME280;20471;49.680;20.074;2023-04-27T07:14:33;97420.55;;;6.71;63.69
34205;BME280;20471;49.680;20.074;2023-04-27T07:17:00;97422.80;;;6.83;63.73
34205;BME280;20471;49.680;20.074;2023-04-27T07:19:27;97424.95;;;6.91;62.89
34205;BME280;20471;49.680;20.074;2023-04-27T07:21:53;97424.48;;;6.96;62.57
34205;BME280;20471;49.680;20.074;2023-04-27T07:24:21;97427.78;;;7.03;62.32
34205;BME280;20471;49.680;20.074;2023-04-27T07:26:47;97423.52;;;7.08;61.83
34205;BME280;20471;49.680;20.074;2023-04-27T07:29:14;97423.41;;;7.13;61.70
34205;BME280;20471;49.680;20.074;2023-04-27T07:31:42;97422.95;;;7.20;61.21
34205;BME280;20471;49.680;20.074;2023-04-27T07:34:08;97427.26;;;7.26;61.11
34205;BME280;20471;49.680;20.074;2023-04-27T07:36:36;97430.99;;;7.27;60.94
34205;BME280;20471;49.680;20.074;2023-04-27T07:39:03;97435.04;;;7.28;60.75
34205;BME280;20471;49.680;20.074;2023-04-27T07:41:31;97433.14;;;7.27;60.66
34205;BME280;20471;49.680;20.074;2023-04-27T07:44:00;97439.23;;;7.24;60.48
34205;BME280;20471;49.680;20.074;2023-04-27T07:46:27;97444.66;;;7.22;60.28
34205;BME280;20471;49.680;20.074;2023-04-27T07:48:55;97446.15;;;7.19;60.10
34205;BME280;20471;49.680;20.074;2023-04-27T07:51:24;97444.63;;;7.17;59.96
34205;BME280;20471;49.680;20.074;2023-04-27T07:53:53;97445.38;;;7.17;59.92
34205;BME280;20471;49.680;20.074;2023-04-27T07:56:20;97446.95;;;7.17;59.67
34205;BME280;20471;49.680;20.074;2023-04-27T07:58:47;97452.52;;;7.14;59.54
34205;BME280;20471;49.680;20.074;2023-04-27T08:01:13;97450.55;;;7.07;59.83
34205;BME280;20471;49.680;20.074;2023-04-27T08:03:40;97451.34;;;7.07;59.50
34205;BME280;20471;49.680;20.074;2023-04-27T08:06:07;97452.02;;;7.19;59.52
34205;BME280;20471;49.680;20.074;2023-04-27T08:08:34;97452.92;;;7.34;58.86
34205;BME280;20471;49.680;20.074;2023-04-27T08:11:01;97449.36;;;7.43;58.76
34205;BME280;20471;49.680;20.074;2023-04-27T08:13:28;97448.61;;;7.55;58.55
34205;BME280;20471;49.680;20.074;2023-04-27T08:15:55;97446.55;;;7.65;58.18
34205;BME280;20471;49.680;20.074;2023-04-27T08:18:24;97447.90;;;7.72;58.13
34205;BME280;20471;49.680;20.074;2023-04-27T08:20:51;97448.72;;;7.80;58.03
34205;BME280;20471;49.680;20.074;2023-04-27T08:23:18;97450.63;;;7.86;57.65
34205;BME280;20471;49.680;20.074;2023-04-27T08:25:45;97454.45;;;7.91;57.64
34205;BME280;20471;49.680;20.074;2023-04-27T08:28:13;97462.10;;;7.97;57.56
34205;BME280;20471;49.680;20.074;2023-04-27T08:30:43;97465.10;;;8.03;57.41
34205;BME280;20471;49.680;20.074;2023-04-27T08:33:09;97466.58;;;8.06;57.04
34205;BME280;20471;49.680;20.074;2023-04-27T08:35:36;97477.41;;;7.98;56.95
34205;BME280;20471;49.680;20.074;2023-04-27T08:38:03;97483.27;;;7.84;57.03
34205;BME280;20471;49.680;20.074;2023-04-27T08:40:30;97479.83;;;7.73;57.34
34205;BME280;20471;49.680;20.074;2023-04-27T08:42:58;97477.95;;;7.76;57.63
34205;BME280;20471;49.680;20.074;2023-04-27T08:45:26;97470.35;;;7.80;58.08
34205;BME280;20471;49.680;20.074;2023-04-27T08:47:54;97467.85;;;7.82;58.57
34205;BME280;20471;49.680;20.074;2023-04-27T08:50:21;97467.08;;;7.84;58.77
34205;BME280;20471;49.680;20.074;2023-04-27T08:52:49;97464.02;;;8.08;58.92
34205;BME280;20471;49.680;20.074;2023-04-27T08:55:18;97457.77;;;8.71;58.68
34205;BME280;20471;49.680;20.074;2023-04-27T08:57:57;97456.31;;;9.36;57.87
34205;BME280;20471;49.680;20.074;2023-04-27T09:00:26;97463.82;;;9.98;57.76
34205;BME280;20471;49.680;20.074;2023-04-27T09:02:53;97463.16;;;10.58;56.76
34205;BME280;20471;49.680;20.074;2023-04-27T09:05:21;97464.67;;;10.82;54.74
34205;BME280;20471;49.680;20.074;2023-04-27T09:07:59;97461.66;;;10.70;53.85
34205;BME280;20471;49.680;20.074;2023-04-27T09:10:26;97461.71;;;10.58;53.24
34205;BME280;20471;49.680;20.074;2023-04-27T09:12:56;97457.54;;;10.49;52.94
34205;BME280;20471;49.680;20.074;2023-04-27T09:15:23;97454.64;;;10.44;52.49
34205;BME280;20471;49.680;20.074;2023-04-27T09:17:56;97450.20;;;10.34;52.03
34205;BME280;20471;49.680;20.074;2023-04-27T09:20:23;97447.70;;;10.09;52.37
34205;BME280;20471;49.680;20.074;2023-04-27T09:22:52;97448.61;;;9.84;52.32
34205;BME280;20471;49.680;20.074;2023-04-27T09:25:30;97443.69;;;9.86;52.23
34205;BME280;20471;49.680;20.074;2023-04-27T09:27:59;97437.12;;;10.30;52.41
34205;BME280;20471;49.680;20.074;2023-04-27T09:30:27;97432.03;;;10.88;51.82
34205;BME280;20471;49.680;20.074;2023-04-27T09:32:56;97425.35;;;11.35;51.30
34205;BME280;20471;49.680;20.074;2023-04-27T09:35:27;97422.36;;;11.73;51.02
34205;BME280;20471;49.680;20.074;2023-04-27T09:37:55;97418.81;;;12.20;50.29
34205;BME280;20471;49.680;20.074;2023-04-27T09:40:25;97410.58;;;12.71;49.47
34205;BME280;20471;49.680;20.074;2023-04-27T09:42:54;97409.82;;;13.24;48.81
34205;BME280;20471;49.680;20.074;2023-04-27T09:45:23;97404.98;;;13.62;48.37
34205;BME280;20471;49.680;20.074;2023-04-27T09:47:49;97397.14;;;13.64;47.60
34205;BME280;20471;49.680;20.074;2023-04-27T09:50:16;97401.36;;;13.43;47.70
34205;BME280;20471;49.680;20.074;2023-04-27T09:52:45;97407.02;;;13.03;46.72
34205;BME280;20471;49.680;20.074;2023-04-27T10:01:42;97416.49;;;12.20;46.52
34205;BME280;20471;49.680;20.074;2023-04-27T10:07:14;97416.36;;;11.67;46.09
34205;BME280;20471;49.680;20.074;2023-04-27T10:12:25;97416.08;;;11.30;46.08
34205;BME280;20471;49.680;20.074;2023-04-27T10:14:57;97415.75;;;11.26;46.23
34205;BME280;20471;49.680;20.074;2023-04-27T10:17:30;97416.04;;;11.27;46.55
34205;BME280;20471;49.680;20.074;2023-04-27T10:19:58;97411.80;;;11.10;46.60
34205;BME280;20471;49.680;20.074;2023-04-27T10:22:48;97407.91;;;10.86;46.82
34205;BME280;20471;49.680;20.074;2023-04-27T10:27:58;97407.96;;;10.69;46.80
34205;BME280;20471;49.680;20.074;2023-04-27T10:30:32;97404.18;;;10.66;46.48
34205;BME280;20471;49.680;20.074;2023-04-27T10:33:04;97400.14;;;10.73;46.48
34205;BME280;20471;49.680;20.074;2023-04-27T10:35:33;97399.48;;;10.96;45.89
34205;BME280;20471;49.680;20.074;2023-04-27T10:38:15;97398.40;;;11.15;45.83
34205;BME280;20471;49.680;20.074;2023-04-27T10:40:43;97398.60;;;11.23;46.11
34205;BME280;20471;49.680;20.074;2023-04-27T10:43:12;97401.20;;;11.38;45.91
34205;BME280;20471;49.680;20.074;2023-04-27T10:45:40;97402.63;;;11.62;45.61
34205;BME280;20471;49.680;20.074;2023-04-27T10:48:07;97401.78;;;12.02;45.22
34205;BME280;20471;49.680;20.074;2023-04-27T10:50:34;97398.11;;;12.16;43.59
34205;BME280;20471;49.680;20.074;2023-04-27T10:53:04;97392.48;;;12.10;44.09
34205;BME280;20471;49.680;20.074;2023-04-27T10:55:32;97394.20;;;12.35;44.76
34205;BME280;20471;49.680;20.074;2023-04-27T10:58:00;97389.83;;;12.72;43.82
34205;BME280;20471;49.680;20.074;2023-04-27T11:00:29;97388.82;;;12.80;43.13
34205;BME280;20471;49.680;20.074;2023-04-27T11:03:09;97389.78;;;12.73;43.05
34205;BME280;20471;49.680;20.074;2023-04-27T11:05:37;97401.39;;;12.62;43.21
34205;BME280;20471;49.680;20.074;2023-04-27T11:08:08;97411.04;;;12.47;43.22
34205;BME280;20471;49.680;20.074;2023-04-27T11:10:41;97412.99;;;12.19;43.22
34205;BME280;20471;49.680;20.074;2023-04-27T11:13:20;97414.27;;;11.90;43.24
34205;BME280;20471;49.680;20.074;2023-04-27T11:15:55;97417.23;;;11.59;43.57
34205;BME280;20471;49.680;20.074;2023-04-27T11:18:25;97417.35;;;11.32;43.74
34205;BME280;20471;49.680;20.074;2023-04-27T11:20:55;97420.70;;;11.08;43.89
34205;BME280;20471;49.680;20.074;2023-04-27T11:23:31;97426.08;;;10.92;44.07
34205;BME280;20471;49.680;20.074;2023-04-27T11:28:35;97426.06;;;10.69;44.53
34205;BME280;20471;49.680;20.074;2023-04-27T11:31:02;97428.20;;;10.56;45.07
34205;BME280;20471;49.680;20.074;2023-04-27T11:33:29;97431.24;;;10.55;45.18
34205;BME280;20471;49.680;20.074;2023-04-27T11:35:56;97428.14;;;10.54;45.21
34205;BME280;20471;49.680;20.074;2023-04-27T11:38:23;97428.83;;;10.39;45.08
34205;BME280;20471;49.680;20.074;2023-04-27T11:41:05;97428.87;;;10.22;44.97
34205;BME280;20471;49.680;20.074;2023-04-27T11:43:32;97429.09;;;10.02;44.93
34205;BME280;20471;49.680;20.074;2023-04-27T11:46:03;97430.00;;;9.94;45.53
34205;BME280;20471;49.680;20.074;2023-04-27T11:48:32;97425.94;;;10.07;45.96
34205;BME280;20471;49.680;20.074;2023-04-27T11:51:02;97424.77;;;10.23;45.38
34205;BME280;20471;49.680;20.074;2023-04-27T11:53:36;97420.64;;;10.36;45.09
34205;BME280;20471;49.680;20.074;2023-04-27T11:56:05;97422.77;;;10.51;44.68
34205;BME280;20471;49.680;20.074;2023-04-27T11:58:34;97418.84;;;10.62;44.72
34205;BME280;20471;49.680;20.074;2023-04-27T12:01:02;97418.73;;;10.71;44.76
34205;BME280;20471;49.680;20.074;2023-04-27T12:03:29;97414.24;;;10.77;44.52
34205;BME280;20471;49.680;20.074;2023-04-27T12:05:56;97415.23;;;10.89;43.98
34205;BME280;20471;49.680;20.074;2023-04-27T12:08:23;97418.39;;;10.95;44.25
34205;BME280;20471;49.680;20.074;2023-04-27T12:10:51;97414.77;;;10.98;44.45
34205;BME280;20471;49.680;20.074;2023-04-27T12:13:18;97416.42;;;11.08;44.45
34205;BME280;20471;49.680;20.074;2023-04-27T12:15:44;97412.98;;;11.18;44.38
34205;BME280;20471;49.680;20.074;2023-04-27T12:18:11;97416.07;;;11.22;44.26
34205;BME280;20471;49.680;20.074;2023-04-27T12:20:38;97414.36;;;11.33;44.19
34205;BME280;20471;49.680;20.074;2023-04-27T12:23:05;97410.95;;;11.39;43.66
34205;BME280;20471;49.680;20.074;2023-04-27T12:25:32;97414.11;;;11.41;43.47
34205;BME280;20471;49.680;20.074;2023-04-27T12:27:59;97414.98;;;11.32;43.60
34205;BME280;20471;49.680;20.074;2023-04-27T12:30:25;97414.58;;;11.29;43.37
34205;BME280;20471;49.680;20.074;2023-04-27T12:32:52;97414.00;;;11.29;42.91
34205;BME280;20471;49.680;20.074;2023-04-27T12:35:19;97410.30;;;11.29;43.12
34205;BME280;20471;49.680;20.074;2023-04-27T12:37:46;97414.34;;;11.22;42.95
34205;BME280;20471;49.680;20.074;2023-04-27T12:40:14;97416.44;;;11.14;43.06
34205;BME280;20471;49.680;20.074;2023-04-27T12:42:41;97416.75;;;10.99;43.23
34205;BME280;20471;49.680;20.074;2023-04-27T12:45:08;97415.91;;;10.99;43.30
34205;BME280;20471;49.680;20.074;2023-04-27T12:47:35;97417.39;;;11.03;43.72
34205;BME280;20471;49.680;20.074;2023-04-27T12:50:02;97417.27;;;11.07;43.73
34205;BME280;20471;49.680;20.074;2023-04-27T12:52:30;97413.02;;;10.95;43.75
34205;BME280;20471;49.680;20.074;2023-04-27T12:54:57;97411.80;;;10.73;43.67
34205;BME280;20471;49.680;20.074;2023-04-27T12:57:24;97414.17;;;10.59;44.27
34205;BME280;20471;49.680;20.074;2023-04-27T12:59:51;97414.95;;;10.61;44.65
34205;BME280;20471;49.680;20.074;2023-04-27T13:02:18;97414.00;;;10.55;44.14
34205;BME280;20471;49.680;20.074;2023-04-27T13:04:45;97411.71;;;10.47;44.61
34205;BME280;20471;49.680;20.074;2023-04-27T13:07:11;97410.02;;;10.56;44.94
34205;BME280;20471;49.680;20.074;2023-04-27T13:09:38;97408.42;;;10.65;44.57
34205;BME280;20471;49.680;20.074;2023-04-27T13:12:06;97410.56;;;10.85;44.57
34205;BME280;20471;49.680;20.074;2023-04-27T13:14:33;97407.48;;;11.09;43.92
34205;BME280;20471;49.680;20.074;2023-04-27T13:17:00;97406.08;;;11.24;43.66